Terminal Aerodrome Forecast
Issued by NWS

Home | Current Version | Previous Version | Text Only | Print | Product List | Glossary On
Versions: 1 2 3 4 5 6 7 8 9 10 11 12 13 14 15 16 17 18 19 20 21 22
000
FTUS45 KABQ 220100 AAA
TAFROW
TAF AMD
KROW 220102Z 2201/2224 14005KT P6SM SCT015 BKN100
     FM220400 10006KT P6SM VCSH OVC015
     FM221100 03006KT 4SM BR OVC008
     FM221500 10007KT P6SM OVC015
     FM221800 15009KT P6SM VCSH BKN025
     FM222100 15010KT P6SM VCTS BKN040CB=

USA.gov is the U.S. government's official web portal to all federal, state and local government web resources and services.